Terminal Aerodrome Forecast
Issued by NWS

Home | Current Version | Previous Version | Graphics & Text | Print | Product List | Glossary On
Versions: 1 2 3 4 5 6 7 8 9 10 11 12 13 14 15 16 17 18 19
733
FTUS43 KIWX 301731
TAFSBN
TAF
KSBN 301731Z 3018/3118 10013G21KT 3SM SHRA BR VCTS OVC025CB
     FM302000 08010KT 4SM TSRA OVC015CB
     FM310100 08007KT 4SM BR VCSH OVC008
     FM310500 09006KT 3SM BR VCSH OVC006
     FM311000 05006KT 1 1/2SM BR OVC003
     FM311500 32004KT P6SM OVC008=

USA.gov is the U.S. government's official web portal to all federal, state and local government web resources and services.